الصفحة الرئيسية
METAR-TAF:

METAR-TAF

مطار :

مطار إلدورادو الدولي

بوغوتا, كولومبيا

دائرة عرض: 04-43N, خط طول: 074-09W, ارتفاع: 2547 متر

مراقبة الطقس الحالي

تاريخ ووقت الإصدار 35 دقيقة قبل الساعة 02:00UTC
ريح 3 عقدة من الشمال الشرقي, الاتجاه يتراوح بين الشمال و الشرق/الشمال الشرقي
درجة الحرارة 13°درجة مئوية
الرطوبة 88%
ضغط 1029 hPa
الرؤية 10 كم أو أكثر
غيوم متفرقة على ارتفاع 2500 قدم

METAR: SKBO 260200Z 05003KT 010V070 9999 SCT025 13/11 Q1029 NOSIG

زمن: 21:35 (02:35 UTC)

توقعات

تاريخ ووقت الإصدار 4ساعات و 5 دقيقة قبل الساعة 22:30UTC
التوقعات صالحة من26 الساعة 00 UTC إلى 26 الساعة 24 UTC
ريح 2 عقدةمن اتجاهات متغيرة
الرؤية 10 كم أو أكثر
غيوم متفرقة على ارتفاع 1700 قدم
غيوم مفككة على ارتفاع 8000 قدم
أصبح
من 26 الساعة 16 UTC إلى 26 الساعة 18 UTC
ريح 10 عقدة من الجنوب الشرقي

TAF: SKBO 252230Z 2600/2624 VRB02KT 9999 SCT017 BKN080 BECMG 2616/2618 14010KT TX18/2618Z TN10/2610Z

أرصاد الطقس والتوقعات من أكثر من 4000 مطار (تقارير الطقس للمطار METAR والتنبؤ بالطقس بالمطارTAF).

المحطات المتاحة هي النقط الصفراء والحمراء على الخريطة.

حرك المؤشر فوق النقطة لمعرفة اسم المحطة.

ثم انقر لمعرفة أرصاد وتوقعات الطقس.

لتغيير الخارطة: اضغط على الأزرار الخضراء مع رمز الصليب الأسود للتكبير. على الزر الأخضر مع شرطة للتصغير، أو على الأسهم الخضراء للخرائط المجاورة.


METAR-TAF: